Chelsea, MA (02150)

2:19 PM EDT on September 01, 2015 (GMT -0400)
Prattville | | Change Station
CLOSE
Current Station
Personal Weather Station
Location: Chelsea, MA
Elevation: 112 ft
Nearby Weather Stations

Elev 112 ft 42.41 °N, 71.04 °W | Updated 0 second ago

Partly Cloudy
Partly Cloudy
77.0 °F
Feels Like 79 °F
N
5.4
Wind Variable Wind from North
Gusts 9.2 mph

Today
High -- | Low -- °F
--% Chance of Precip.
Yesterday
High -- | Low -- °F
Precip. -- in
6:08 AM 7:18 PM
Waning Gibbous, 87% visible
Pressure 30.06 in
Visibility 10.0 miles
Clouds Few 4000 ft
Heat Index 79 °F
Dew Point 62 °F
Humidity 59%
Rainfall 0.00 in
Snow Depth Not available.
UV 8 out of 12
Pollen 9.10 out of 12
Air Quality Not available.
Flu Activity Not available.
METAR KBOS 011754Z 08011KT 10SM FEW040 24/17 A3006 RMK AO2 SLP178 T02390172 10261 20222 55000
Pressure 30.06 in
Visibility 10.0 miles
Clouds Few 4000 ft
Heat Index 79 °F
Dew Point 62 °F
Humidity 59%
Rainfall 0.00 in
Snow Depth Not available.
UV 8 out of 12
Pollen 9.10 out of 12
Air Quality Not available.
Flu Activity Not available.
METAR KBOS 011754Z 08011KT 10SM FEW040 24/17 A3006 RMK AO2 SLP178 T02390172 10261 20222 55000

10-Day Weather Forecast

×

Almanac

Astronomy

Sep. 01, 2015 Rise Set
Actual Time
Civil Twilight
Nautical Twilight
Astronomical Twilight
Moon
Length of Visible Light
Length of Day
Tomorrow will be .
, % of the Moon is Illuminated

Today's Extremes

State Highs State Lows

Community

WunderPhotos

Upload Photos

1,851,592 photos uploaded!

WunderBlogs® & News

Nearby

Air Quality

  Air Quality AQ Index Pollutant
Not available.

Snow Depth

Station Depth Elevation

Earthquake Activity

City Distance Mag. Time & Date
Minimum magnitude displayed is 2.5.

Coastal Water Temperatures

Place Temperature

Stations

Nearby Weather Stations

Station Location Temp. Windchill Dew Point Humidity Wind Precip. Elev Updated Type